sensor_id;sensor_type;location;lat;lon;timestamp;pressure;altitude;pressure_sealevel;temperature;humidity
43804;BME280;29430;52.924;-2.388;2023-02-22T00:03:34;98735.59;;;6.89;91.89
43804;BME280;29430;52.924;-2.388;2023-02-22T00:08:28;98726.31;;;6.85;92.51
43804;BME280;29430;52.924;-2.388;2023-02-22T00:13:21;98735.41;;;6.84;92.66
43804;BME280;29430;52.924;-2.388;2023-02-22T00:18:17;98732.78;;;6.77;92.17
43804;BME280;29430;52.924;-2.388;2023-02-22T00:23:18;98725.94;;;6.74;91.97
43804;BME280;29430;52.924;-2.388;2023-02-22T00:28:10;98729.88;;;6.72;92.69
43804;BME280;29430;52.924;-2.388;2023-02-22T00:33:02;98728.25;;;6.71;92.53
43804;BME280;29430;52.924;-2.388;2023-02-22T00:37:58;98734.31;;;6.66;92.72
43804;BME280;29430;52.924;-2.388;2023-02-22T00:42:51;98721.47;;;6.61;93.39
43804;BME280;29430;52.924;-2.388;2023-02-22T00:47:43;98723.94;;;6.63;92.94
43804;BME280;29430;52.924;-2.388;2023-02-22T00:52:36;98716.91;;;6.62;92.61
43804;BME280;29430;52.924;-2.388;2023-02-22T00:57:27;98708.25;;;6.53;91.59
43804;BME280;29430;52.924;-2.388;2023-02-22T01:02:19;98715.34;;;6.48;92.03
43804;BME280;29430;52.924;-2.388;2023-02-22T01:07:11;98703.97;;;6.39;91.92
43804;BME280;29430;52.924;-2.388;2023-02-22T01:12:04;98699.84;;;6.36;92.23
43804;BME280;29430;52.924;-2.388;2023-02-22T01:16:56;98699.66;;;6.31;91.62
43804;BME280;29430;52.924;-2.388;2023-02-22T01:21:48;98686.84;;;6.26;92.44
43804;BME280;29430;52.924;-2.388;2023-02-22T01:26:48;98688.72;;;6.26;91.83
43804;BME280;29430;52.924;-2.388;2023-02-22T01:31:41;98668.44;;;6.23;92.50
43804;BME280;29430;52.924;-2.388;2023-02-22T01:36:34;98667.41;;;6.24;92.52
43804;BME280;29430;52.924;-2.388;2023-02-22T01:41:26;98658.91;;;6.27;92.87
43804;BME280;29430;52.924;-2.388;2023-02-22T01:51:39;98656.75;;;6.36;91.56
43804;BME280;29430;52.924;-2.388;2023-02-22T01:56:33;98652.84;;;6.32;91.40
43804;BME280;29430;52.924;-2.388;2023-02-22T02:01:28;98646.63;;;6.32;91.54
43804;BME280;29430;52.924;-2.388;2023-02-22T02:06:20;98636.47;;;6.34;91.33
43804;BME280;29430;52.924;-2.388;2023-02-22T02:11:12;98640.66;;;6.30;91.89
43804;BME280;29430;52.924;-2.388;2023-02-22T02:16:04;98627.41;;;6.28;92.38
43804;BME280;29430;52.924;-2.388;2023-02-22T02:21:37;98631.75;;;6.29;92.71
43804;BME280;29430;52.924;-2.388;2023-02-22T02:31:56;98624.69;;;6.28;92.18
43804;BME280;29430;52.924;-2.388;2023-02-22T02:42:20;98613.13;;;6.27;93.03
43804;BME280;29430;52.924;-2.388;2023-02-22T02:47:20;98605.84;;;6.28;93.33
43804;BME280;29430;52.924;-2.388;2023-02-22T02:52:17;98607.28;;;6.31;93.00
43804;BME280;29430;52.924;-2.388;2023-02-22T02:57:10;98597.56;;;6.30;93.13
43804;BME280;29430;52.924;-2.388;2023-02-22T03:07:34;98589.25;;;6.31;94.28
43804;BME280;29430;52.924;-2.388;2023-02-22T03:12:59;98578.28;;;6.33;93.95
43804;BME280;29430;52.924;-2.388;2023-02-22T03:18:05;98578.94;;;6.28;94.13
43804;BME280;29430;52.924;-2.388;2023-02-22T03:23:03;98572.94;;;6.26;94.97
43804;BME280;29430;52.924;-2.388;2023-02-22T03:28:00;98568.00;;;6.23;95.57
43804;BME280;29430;52.924;-2.388;2023-02-22T03:33:01;98559.91;;;6.23;96.13
43804;BME280;29430;52.924;-2.388;2023-02-22T03:38:01;98547.66;;;6.27;96.02
43804;BME280;29430;52.924;-2.388;2023-02-22T03:42:59;98550.97;;;6.29;96.16
43804;BME280;29430;52.924;-2.388;2023-02-22T03:48:01;98540.19;;;6.29;97.22
43804;BME280;29430;52.924;-2.388;2023-02-22T03:52:55;98545.38;;;6.31;96.94
43804;BME280;29430;52.924;-2.388;2023-02-22T03:57:54;98538.47;;;6.35;97.35
43804;BME280;29430;52.924;-2.388;2023-02-22T04:02:47;98543.41;;;6.38;97.27
43804;BME280;29430;52.924;-2.388;2023-02-22T04:07:40;98547.78;;;6.39;97.51
43804;BME280;29430;52.924;-2.388;2023-02-22T04:12:33;98547.78;;;6.39;97.50
43804;BME280;29430;52.924;-2.388;2023-02-22T04:17:25;98532.44;;;6.39;97.81
43804;BME280;29430;52.924;-2.388;2023-02-22T04:22:17;98538.66;;;6.40;97.48
43804;BME280;29430;52.924;-2.388;2023-02-22T04:27:09;98539.47;;;6.40;98.53
43804;BME280;29430;52.924;-2.388;2023-02-22T04:32:01;98538.44;;;6.41;98.82
43804;BME280;29430;52.924;-2.388;2023-02-22T04:36:53;98528.47;;;6.42;98.93
43804;BME280;29430;52.924;-2.388;2023-02-22T04:41:44;98521.44;;;6.41;98.74
43804;BME280;29430;52.924;-2.388;2023-02-22T04:46:37;98526.00;;;6.40;98.28
43804;BME280;29430;52.924;-2.388;2023-02-22T04:51:29;98515.09;;;6.35;99.08
43804;BME280;29430;52.924;-2.388;2023-02-22T04:56:21;98516.94;;;6.35;99.68
43804;BME280;29430;52.924;-2.388;2023-02-22T05:01:15;98515.53;;;6.32;100.00
43804;BME280;29430;52.924;-2.388;2023-02-22T05:06:07;98514.69;;;6.32;100.00
43804;BME280;29430;52.924;-2.388;2023-02-22T05:11:02;98514.91;;;6.30;100.00
43804;BME280;29430;52.924;-2.388;2023-02-22T05:15:53;98515.31;;;6.34;100.00
43804;BME280;29430;52.924;-2.388;2023-02-22T05:20:45;98509.06;;;6.33;100.00
43804;BME280;29430;52.924;-2.388;2023-02-22T05:25:37;98499.81;;;6.29;100.00
43804;BME280;29430;52.924;-2.388;2023-02-22T05:30:32;98502.06;;;6.32;100.00
43804;BME280;29430;52.924;-2.388;2023-02-22T05:35:25;98505.13;;;6.36;100.00
43804;BME280;29430;52.924;-2.388;2023-02-22T05:40:23;98509.03;;;6.40;100.00
43804;BME280;29430;52.924;-2.388;2023-02-22T05:45:18;98501.78;;;6.40;100.00
43804;BME280;29430;52.924;-2.388;2023-02-22T05:50:12;98500.31;;;6.38;100.00
43804;BME280;29430;52.924;-2.388;2023-02-22T05:55:06;98500.56;;;6.36;100.00
43804;BME280;29430;52.924;-2.388;2023-02-22T05:59:58;98502.66;;;6.34;100.00
43804;BME280;29430;52.924;-2.388;2023-02-22T06:04:50;98501.22;;;6.32;100.00
43804;BME280;29430;52.924;-2.388;2023-02-22T06:09:44;98499.81;;;6.29;100.00
43804;BME280;29430;52.924;-2.388;2023-02-22T06:14:35;98504.13;;;6.30;100.00
43804;BME280;29430;52.924;-2.388;2023-02-22T06:19:27;98504.56;;;6.27;100.00
43804;BME280;29430;52.924;-2.388;2023-02-22T06:24:19;98498.75;;;6.30;100.00
43804;BME280;29430;52.924;-2.388;2023-02-22T06:29:12;98494.78;;;6.33;100.00
43804;BME280;29430;52.924;-2.388;2023-02-22T06:34:04;98500.56;;;6.36;100.00
43804;BME280;29430;52.924;-2.388;2023-02-22T06:38:56;98505.28;;;6.41;100.00
43804;BME280;29430;52.924;-2.388;2023-02-22T06:43:48;98501.78;;;6.40;100.00
43804;BME280;29430;52.924;-2.388;2023-02-22T06:48:39;98495.34;;;6.41;100.00
43804;BME280;29430;52.924;-2.388;2023-02-22T06:53:31;98512.31;;;6.42;100.00
43804;BME280;29430;52.924;-2.388;2023-02-22T06:58:22;98514.22;;;6.35;100.00
43804;BME280;29430;52.924;-2.388;2023-02-22T07:03:14;98510.94;;;6.33;100.00
43804;BME280;29430;52.924;-2.388;2023-02-22T07:08:09;98518.22;;;6.32;100.00
43804;BME280;29430;52.924;-2.388;2023-02-22T07:13:02;98525.00;;;6.35;100.00
43804;BME280;29430;52.924;-2.388;2023-02-22T07:17:55;98528.53;;;6.35;100.00
43804;BME280;29430;52.924;-2.388;2023-02-22T07:22:47;98529.28;;;6.42;100.00
43804;BME280;29430;52.924;-2.388;2023-02-22T07:27:40;98552.06;;;6.47;100.00
43804;BME280;29430;52.924;-2.388;2023-02-22T07:32:32;98548.34;;;6.48;100.00
43804;BME280;29430;52.924;-2.388;2023-02-22T07:37:24;98556.78;;;6.51;100.00
43804;BME280;29430;52.924;-2.388;2023-02-22T07:42:16;98566.31;;;6.54;100.00
43804;BME280;29430;52.924;-2.388;2023-02-22T07:47:08;98565.44;;;6.60;100.00
43804;BME280;29430;52.924;-2.388;2023-02-22T07:52:03;98575.53;;;6.65;100.00
43804;BME280;29430;52.924;-2.388;2023-02-22T07:56:54;98579.44;;;6.69;100.00
43804;BME280;29430;52.924;-2.388;2023-02-22T08:01:48;98582.91;;;6.76;100.00
43804;BME280;29430;52.924;-2.388;2023-02-22T08:06:40;98585.75;;;6.81;100.00
43804;BME280;29430;52.924;-2.388;2023-02-22T08:11:32;98590.69;;;6.84;100.00
43804;BME280;29430;52.924;-2.388;2023-02-22T08:16:24;98597.53;;;6.87;100.00
43804;BME280;29430;52.924;-2.388;2023-02-22T08:21:16;98606.88;;;6.84;100.00
43804;BME280;29430;52.924;-2.388;2023-02-22T08:26:10;98610.44;;;6.78;100.00
43804;BME280;29430;52.924;-2.388;2023-02-22T08:31:06;98611.59;;;6.63;100.00
43804;BME280;29430;52.924;-2.388;2023-02-22T08:35:59;98622.44;;;6.57;100.00
43804;BME280;29430;52.924;-2.388;2023-02-22T08:40:52;98627.63;;;6.58;100.00
43804;BME280;29430;52.924;-2.388;2023-02-22T08:45:44;98639.81;;;6.61;100.00
43804;BME280;29430;52.924;-2.388;2023-02-22T08:50:36;98641.47;;;6.62;100.00
43804;BME280;29430;52.924;-2.388;2023-02-22T08:55:34;98643.34;;;6.61;100.00
43804;BME280;29430;52.924;-2.388;2023-02-22T09:00:26;98648.50;;;6.63;100.00
43804;BME280;29430;52.924;-2.388;2023-02-22T09:05:20;98649.69;;;6.67;100.00
43804;BME280;29430;52.924;-2.388;2023-02-22T09:10:13;98653.03;;;6.69;100.00
43804;BME280;29430;52.924;-2.388;2023-02-22T09:15:06;98659.16;;;6.76;100.00
43804;BME280;29430;52.924;-2.388;2023-02-22T09:19:58;98666.38;;;6.82;100.00
43804;BME280;29430;52.924;-2.388;2023-02-22T09:24:51;98670.84;;;6.95;100.00
43804;BME280;29430;52.924;-2.388;2023-02-22T09:29:43;98679.44;;;7.11;100.00
43804;BME280;29430;52.924;-2.388;2023-02-22T09:34:34;98675.13;;;7.28;100.00
43804;BME280;29430;52.924;-2.388;2023-02-22T09:39:26;98683.31;;;7.40;100.00
43804;BME280;29430;52.924;-2.388;2023-02-22T09:49:34;98687.50;;;7.36;100.00
43804;BME280;29430;52.924;-2.388;2023-02-22T09:54:35;98693.34;;;7.33;100.00
43804;BME280;29430;52.924;-2.388;2023-02-22T09:59:33;98694.59;;;7.30;100.00
43804;BME280;29430;52.924;-2.388;2023-02-22T10:04:44;98700.84;;;7.31;100.00
43804;BME280;29430;52.924;-2.388;2023-02-22T10:09:41;98704.41;;;7.25;100.00
43804;BME280;29430;52.924;-2.388;2023-02-22T10:25:01;98703.19;;;7.21;100.00
43804;BME280;29430;52.924;-2.388;2023-02-22T10:30:04;98713.59;;;7.17;100.00
43804;BME280;29430;52.924;-2.388;2023-02-22T10:35:34;98722.75;;;7.16;100.00
43804;BME280;29430;52.924;-2.388;2023-02-22T10:40:27;98719.97;;;7.23;100.00
43804;BME280;29430;52.924;-2.388;2023-02-22T10:45:26;98723.94;;;7.45;100.00
43804;BME280;29430;52.924;-2.388;2023-02-22T10:50:18;98725.00;;;7.81;100.00
43804;BME280;29430;52.924;-2.388;2023-02-22T10:55:13;98731.41;;;8.05;99.86
43804;BME280;29430;52.924;-2.388;2023-02-22T11:00:28;98728.16;;;8.15;98.69
43804;BME280;29430;52.924;-2.388;2023-02-22T11:05:33;98729.03;;;8.28;98.67
43804;BME280;29430;52.924;-2.388;2023-02-22T11:10:31;98727.69;;;8.37;96.34
43804;BME280;29430;52.924;-2.388;2023-02-22T11:15:29;98730.59;;;8.35;96.71
43804;BME280;29430;52.924;-2.388;2023-02-22T11:20:27;98731.13;;;8.63;97.86
43804;BME280;29430;52.924;-2.388;2023-02-22T11:25:26;98730.09;;;9.29;97.08
43804;BME280;29430;52.924;-2.388;2023-02-22T11:30:26;98729.50;;;9.86;94.36
43804;BME280;29430;52.924;-2.388;2023-02-22T11:35:30;98744.97;;;10.38;89.52
43804;BME280;29430;52.924;-2.388;2023-02-22T11:40:23;98736.31;;;10.53;87.31
43804;BME280;29430;52.924;-2.388;2023-02-22T11:45:20;98737.56;;;10.63;88.20
43804;BME280;29430;52.924;-2.388;2023-02-22T11:55:38;98744.13;;;10.79;82.32
43804;BME280;29430;52.924;-2.388;2023-02-22T12:00:55;98752.47;;;10.48;81.03
43804;BME280;29430;52.924;-2.388;2023-02-22T12:06:17;98749.72;;;10.60;81.67
43804;BME280;29430;52.924;-2.388;2023-02-22T12:16:27;98765.03;;;10.66;78.85
43804;BME280;29430;52.924;-2.388;2023-02-22T12:21:23;98776.44;;;10.16;79.95
43804;BME280;29430;52.924;-2.388;2023-02-22T12:26:36;98769.69;;;9.78;83.48
43804;BME280;29430;52.924;-2.388;2023-02-22T12:31:37;98771.31;;;9.55;85.75
43804;BME280;29430;52.924;-2.388;2023-02-22T12:36:37;98775.16;;;9.36;87.54
43804;BME280;29430;52.924;-2.388;2023-02-22T12:41:35;98775.50;;;9.27;88.34
43804;BME280;29430;52.924;-2.388;2023-02-22T12:56:24;98784.22;;;8.87;87.24
43804;BME280;29430;52.924;-2.388;2023-02-22T13:01:25;98795.81;;;8.76;89.04
43804;BME280;29430;52.924;-2.388;2023-02-22T13:06:44;98793.13;;;8.76;89.18
43804;BME280;29430;52.924;-2.388;2023-02-22T13:11:48;98788.66;;;8.82;89.56
43804;BME280;29430;52.924;-2.388;2023-02-22T13:17:14;98784.28;;;8.99;91.29
43804;BME280;29430;52.924;-2.388;2023-02-22T13:48:21;98800.13;;;9.49;82.95
43804;BME280;29430;52.924;-2.388;2023-02-22T13:53:24;98794.94;;;9.36;81.17
43804;BME280;29430;52.924;-2.388;2023-02-22T13:58:17;98799.28;;;9.25;83.80
43804;BME280;29430;52.924;-2.388;2023-02-22T14:08:04;98811.03;;;9.19;81.33
43804;BME280;29430;52.924;-2.388;2023-02-22T14:13:03;98810.69;;;8.97;81.89
43804;BME280;29430;52.924;-2.388;2023-02-22T14:22:49;98814.44;;;8.84;84.70
43804;BME280;29430;52.924;-2.388;2023-02-22T14:27:41;98810.34;;;8.93;86.50
43804;BME280;29430;52.924;-2.388;2023-02-22T14:32:34;98823.47;;;9.08;87.63
43804;BME280;29430;52.924;-2.388;2023-02-22T14:37:28;98806.09;;;9.28;89.89
43804;BME280;29430;52.924;-2.388;2023-02-22T14:47:26;98814.50;;;9.62;81.83
43804;BME280;29430;52.924;-2.388;2023-02-22T14:52:26;98819.06;;;9.49;79.66
43804;BME280;29430;52.924;-2.388;2023-02-22T14:57:24;98825.06;;;9.40;78.81
43804;BME280;29430;52.924;-2.388;2023-02-22T15:02:20;98829.75;;;9.32;79.25
43804;BME280;29430;52.924;-2.388;2023-02-22T15:07:29;98820.31;;;9.23;78.87
43804;BME280;29430;52.924;-2.388;2023-02-22T15:12:26;98825.13;;;9.21;79.60
43804;BME280;29430;52.924;-2.388;2023-02-22T15:17:23;98830.44;;;9.16;79.05
43804;BME280;29430;52.924;-2.388;2023-02-22T15:22:27;98840.88;;;9.12;80.64
43804;BME280;29430;52.924;-2.388;2023-02-22T15:27:22;98838.84;;;9.08;80.59
43804;BME280;29430;52.924;-2.388;2023-02-22T15:32:38;98834.81;;;8.99;80.12
43804;BME280;29430;52.924;-2.388;2023-02-22T15:43:06;98858.47;;;8.73;77.97
43804;BME280;29430;52.924;-2.388;2023-02-22T15:48:00;98854.69;;;8.55;78.18
43804;BME280;29430;52.924;-2.388;2023-02-22T15:53:00;98853.34;;;8.46;78.96
43804;BME280;29430;52.924;-2.388;2023-02-22T15:57:52;98866.31;;;8.37;80.17
43804;BME280;29430;52.924;-2.388;2023-02-22T16:02:45;98868.34;;;8.23;82.81
43804;BME280;29430;52.924;-2.388;2023-02-22T16:07:48;98864.94;;;8.10;82.88
43804;BME280;29430;52.924;-2.388;2023-02-22T16:12:40;98862.13;;;7.98;84.17
43804;BME280;29430;52.924;-2.388;2023-02-22T16:17:39;98868.44;;;7.92;84.08
43804;BME280;29430;52.924;-2.388;2023-02-22T16:22:55;98874.94;;;7.84;84.21
43804;BME280;29430;52.924;-2.388;2023-02-22T16:27:59;98883.25;;;7.82;85.68
43804;BME280;29430;52.924;-2.388;2023-02-22T16:32:54;98889.69;;;7.81;86.82
43804;BME280;29430;52.924;-2.388;2023-02-22T16:37:49;98894.72;;;7.78;87.24
43804;BME280;29430;52.924;-2.388;2023-02-22T16:42:41;98900.97;;;7.71;89.09
43804;BME280;29430;52.924;-2.388;2023-02-22T16:47:32;98891.88;;;7.66;89.44
43804;BME280;29430;52.924;-2.388;2023-02-22T16:52:24;98886.91;;;7.63;89.91
43804;BME280;29430;52.924;-2.388;2023-02-22T16:57:20;98902.72;;;7.59;90.25
43804;BME280;29430;52.924;-2.388;2023-02-22T17:02:13;98908.56;;;7.56;90.53
43804;BME280;29430;52.924;-2.388;2023-02-22T17:07:06;98926.06;;;7.47;89.14
43804;BME280;29430;52.924;-2.388;2023-02-22T17:12:00;98925.31;;;7.33;90.02
43804;BME280;29430;52.924;-2.388;2023-02-22T17:16:52;98924.72;;;7.31;90.07
43804;BME280;29430;52.924;-2.388;2023-02-22T17:21:44;98938.84;;;7.26;89.78
43804;BME280;29430;52.924;-2.388;2023-02-22T17:26:36;98943.41;;;7.26;90.26
43804;BME280;29430;52.924;-2.388;2023-02-22T17:31:28;98944.69;;;7.23;90.58
43804;BME280;29430;52.924;-2.388;2023-02-22T17:36:20;98962.31;;;7.19;90.67
43804;BME280;29430;52.924;-2.388;2023-02-22T17:41:13;98982.28;;;7.05;89.51
43804;BME280;29430;52.924;-2.388;2023-02-22T17:46:06;98981.47;;;6.97;90.03
43804;BME280;29430;52.924;-2.388;2023-02-22T17:50:58;98991.25;;;6.92;90.94
43804;BME280;29430;52.924;-2.388;2023-02-22T17:55:54;98997.25;;;6.87;91.56
43804;BME280;29430;52.924;-2.388;2023-02-22T18:00:48;99005.59;;;6.79;92.08
43804;BME280;29430;52.924;-2.388;2023-02-22T18:05:44;99023.22;;;6.75;92.08
43804;BME280;29430;52.924;-2.388;2023-02-22T18:10:38;99016.19;;;6.74;92.41
43804;BME280;29430;52.924;-2.388;2023-02-22T18:15:30;99031.09;;;6.70;92.97
43804;BME280;29430;52.924;-2.388;2023-02-22T18:20:26;99032.56;;;6.59;92.72
43804;BME280;29430;52.924;-2.388;2023-02-22T18:25:21;99028.00;;;6.53;94.21
43804;BME280;29430;52.924;-2.388;2023-02-22T18:30:13;99039.19;;;6.50;92.75
43804;BME280;29430;52.924;-2.388;2023-02-22T18:35:05;99062.00;;;6.40;92.90
43804;BME280;29430;52.924;-2.388;2023-02-22T18:39:58;99065.72;;;6.33;93.45
43804;BME280;29430;52.924;-2.388;2023-02-22T18:44:50;99078.97;;;6.34;93.40
43804;BME280;29430;52.924;-2.388;2023-02-22T18:49:43;99087.25;;;6.39;94.20
43804;BME280;29430;52.924;-2.388;2023-02-22T18:54:34;99083.75;;;6.39;93.61
43804;BME280;29430;52.924;-2.388;2023-02-22T18:59:28;99092.84;;;6.38;93.74
43804;BME280;29430;52.924;-2.388;2023-02-22T19:04:20;99096.81;;;6.35;94.44
43804;BME280;29430;52.924;-2.388;2023-02-22T19:09:12;99105.50;;;6.31;94.20
43804;BME280;29430;52.924;-2.388;2023-02-22T19:14:03;99108.19;;;6.31;95.43
43804;BME280;29430;52.924;-2.388;2023-02-22T19:18:56;99121.88;;;6.29;95.14
43804;BME280;29430;52.924;-2.388;2023-02-22T19:23:49;99123.91;;;6.27;95.64
43804;BME280;29430;52.924;-2.388;2023-02-22T19:28:41;99126.22;;;6.30;96.52
43804;BME280;29430;52.924;-2.388;2023-02-22T19:33:32;99132.03;;;6.34;96.07
43804;BME280;29430;52.924;-2.388;2023-02-22T19:38:24;99146.31;;;6.34;95.79
43804;BME280;29430;52.924;-2.388;2023-02-22T19:43:16;99137.81;;;6.31;95.41
43804;BME280;29430;52.924;-2.388;2023-02-22T19:48:07;99151.28;;;6.31;96.13
43804;BME280;29430;52.924;-2.388;2023-02-22T19:52:59;99159.78;;;6.27;96.01
43804;BME280;29430;52.924;-2.388;2023-02-22T19:57:51;99166.59;;;6.30;96.51
43804;BME280;29430;52.924;-2.388;2023-02-22T20:02:42;99166.41;;;6.32;96.35
43804;BME280;29430;52.924;-2.388;2023-02-22T20:07:35;99176.34;;;6.24;96.83
43804;BME280;29430;52.924;-2.388;2023-02-22T20:12:26;99177.56;;;6.22;95.76
43804;BME280;29430;52.924;-2.388;2023-02-22T20:17:18;99188.53;;;6.14;95.74
43804;BME280;29430;52.924;-2.388;2023-02-22T20:22:10;99178.97;;;6.04;95.89
43804;BME280;29430;52.924;-2.388;2023-02-22T20:27:02;99190.06;;;5.95;96.25
43804;BME280;29430;52.924;-2.388;2023-02-22T20:31:55;99195.03;;;5.91;96.08
43804;BME280;29430;52.924;-2.388;2023-02-22T20:36:48;99205.78;;;5.84;95.90
43804;BME280;29430;52.924;-2.388;2023-02-22T20:41:41;99215.25;;;5.73;95.95
43804;BME280;29430;52.924;-2.388;2023-02-22T20:46:34;99218.66;;;5.61;96.17
43804;BME280;29430;52.924;-2.388;2023-02-22T20:51:29;99220.50;;;5.53;96.56
43804;BME280;29430;52.924;-2.388;2023-02-22T20:56:22;99231.19;;;5.47;96.31
43804;BME280;29430;52.924;-2.388;2023-02-22T21:01:16;99236.97;;;5.44;96.16
43804;BME280;29430;52.924;-2.388;2023-02-22T21:06:12;99238.41;;;5.40;95.85
43804;BME280;29430;52.924;-2.388;2023-02-22T21:11:13;99251.59;;;5.34;96.00
43804;BME280;29430;52.924;-2.388;2023-02-22T21:16:07;99255.53;;;5.32;97.24
43804;BME280;29430;52.924;-2.388;2023-02-22T21:21:04;99258.84;;;5.34;96.91
43804;BME280;29430;52.924;-2.388;2023-02-22T21:26:00;99254.28;;;5.34;97.57
43804;BME280;29430;52.924;-2.388;2023-02-22T21:30:52;99263.81;;;5.37;nan
43804;BME280;29430;52.924;-2.388;2023-02-22T21:35:44;99268.78;;;5.33;98.35
43804;BME280;29430;52.924;-2.388;2023-02-22T21:40:40;99277.66;;;5.34;98.69
43804;BME280;29430;52.924;-2.388;2023-02-22T21:45:33;99280.34;;;5.34;96.94
43804;BME280;29430;52.924;-2.388;2023-02-22T21:50:25;99283.25;;;5.32;96.45
43804;BME280;29430;52.924;-2.388;2023-02-22T21:55:20;99286.94;;;5.31;97.21
43804;BME280;29430;52.924;-2.388;2023-02-22T22:00:13;99286.94;;;5.31;97.93
43804;BME280;29430;52.924;-2.388;2023-02-22T22:05:08;99292.19;;;5.40;99.25
43804;BME280;29430;52.924;-2.388;2023-02-22T22:10:00;99297.63;;;5.46;99.15
43804;BME280;29430;52.924;-2.388;2023-02-22T22:14:53;99307.78;;;5.51;98.99
43804;BME280;29430;52.924;-2.388;2023-02-22T22:19:45;99306.13;;;5.50;97.61
43804;BME280;29430;52.924;-2.388;2023-02-22T22:24:39;99306.47;;;5.40;95.99
43804;BME280;29430;52.924;-2.388;2023-02-22T22:29:36;99307.06;;;5.35;96.10
43804;BME280;29430;52.924;-2.388;2023-02-22T22:34:27;99307.19;;;5.27;95.80
43804;BME280;29430;52.924;-2.388;2023-02-22T22:39:20;99307.00;;;5.29;96.08
43804;BME280;29430;52.924;-2.388;2023-02-22T22:44:12;99320.88;;;5.32;96.62
43804;BME280;29430;52.924;-2.388;2023-02-22T22:49:08;99310.56;;;5.36;96.38
43804;BME280;29430;52.924;-2.388;2023-02-22T22:54:00;99328.19;;;5.38;95.96
43804;BME280;29430;52.924;-2.388;2023-02-22T22:58:57;99321.31;;;5.36;95.82
43804;BME280;29430;52.924;-2.388;2023-02-22T23:03:52;99332.84;;;5.30;95.94
43804;BME280;29430;52.924;-2.388;2023-02-22T23:09:01;99327.94;;;5.33;95.90
43804;BME280;29430;52.924;-2.388;2023-02-22T23:14:02;99337.84;;;5.33;95.36
43804;BME280;29430;52.924;-2.388;2023-02-22T23:18:55;99343.41;;;5.31;95.17
43804;BME280;29430;52.924;-2.388;2023-02-22T23:23:47;99357.72;;;5.32;94.77
43804;BME280;29430;52.924;-2.388;2023-02-22T23:28:44;99359.09;;;5.28;93.38
43804;BME280;29430;52.924;-2.388;2023-02-22T23:33:36;99353.44;;;5.16;92.35
43804;BME280;29430;52.924;-2.388;2023-02-22T23:38:29;99365.97;;;5.09;91.82
43804;BME280;29430;52.924;-2.388;2023-02-22T23:43:21;99368.13;;;4.98;91.45
43804;BME280;29430;52.924;-2.388;2023-02-22T23:48:16;99363.25;;;4.87;91.58
43804;BME280;29430;52.924;-2.388;2023-02-22T23:53:10;99386.50;;;4.80;91.43
43804;BME280;29430;52.924;-2.388;2023-02-22T23:58:05;99382.06;;;4.72;92.76
